createdAt,value
2023-04-10T00:00:02.535Z,15.07
2023-04-10T00:02:29.418Z,10.67
2023-04-10T00:04:56.315Z,10.47
2023-04-10T00:07:23.155Z,9.30
2023-04-10T00:09:49.821Z,10.90
2023-04-10T00:12:16.749Z,9.10
2023-04-10T00:14:43.643Z,8.87
2023-04-10T00:17:10.705Z,9.90
2023-04-10T00:19:47.381Z,7.97
2023-04-10T00:22:15.055Z,9.80
2023-04-10T00:24:41.720Z,6.90
2023-04-10T00:27:08.356Z,6.80
2023-04-10T00:29:35.516Z,9.70
2023-04-10T00:32:02.777Z,6.87
2023-04-10T00:34:29.509Z,7.20
2023-04-10T00:36:56.435Z,8.77
2023-04-10T00:39:23.072Z,8.57
2023-04-10T00:41:49.742Z,10.07
2023-04-10T00:44:16.450Z,9.93
2023-04-10T00:46:43.801Z,9.50
2023-04-10T00:49:10.958Z,11.40
2023-04-10T00:51:37.901Z,12.63
2023-04-10T00:54:04.808Z,14.50
2023-04-10T00:56:32.470Z,10.03
2023-04-10T00:58:59.444Z,9.07
2023-04-10T01:01:26.400Z,8.77
2023-04-10T01:03:56.209Z,6.97
2023-04-10T01:06:54.153Z,6.73
2023-04-10T01:09:29.920Z,7.60
2023-04-10T01:12:19.571Z,7.50
2023-04-10T01:15:04.855Z,14.50
2023-04-10T01:17:46.707Z,12.50
2023-04-10T01:20:23.633Z,12.20
2023-04-10T01:23:24.143Z,21.57
2023-04-10T01:26:04.722Z,16.50
2023-04-10T01:28:53.432Z,17.37
2023-04-10T01:31:39.300Z,20.33
2023-04-10T01:34:10.553Z,23.20
2023-04-10T01:36:51.400Z,16.67
2023-04-10T01:39:22.829Z,17.30
2023-04-10T01:41:54.417Z,20.33
2023-04-10T01:44:27.709Z,17.13
2023-04-10T01:46:56.803Z,15.40
2023-04-10T01:49:26.553Z,15.53
2023-04-10T01:51:58.394Z,13.53
2023-04-10T01:54:27.984Z,12.57
2023-04-10T01:56:56.827Z,12.70
2023-04-10T01:59:23.567Z,11.80
2023-04-10T02:01:56.517Z,12.30
2023-04-10T02:04:23.357Z,9.63
2023-04-10T02:07:02.402Z,9.50
2023-04-10T02:09:44.993Z,10.87
2023-04-10T02:12:19.149Z,10.93
2023-04-10T02:14:50.706Z,11.32
2023-04-10T02:17:23.625Z,57.40
2023-04-10T02:19:53.334Z,27.63
2023-04-10T02:22:21.995Z,17.27
2023-04-10T02:24:49.952Z,12.30
2023-04-10T02:27:16.686Z,21.27
2023-04-10T02:29:43.351Z,24.30
2023-04-10T02:32:10.802Z,32.17
2023-04-10T02:34:37.426Z,11.30
2023-04-10T02:37:04.120Z,14.63
2023-04-10T02:39:30.966Z,14.87
2023-04-10T02:41:57.822Z,14.57
2023-04-10T02:44:24.549Z,13.03
2023-04-10T02:46:51.557Z,10.70
2023-04-10T02:49:18.244Z,9.60
2023-04-10T02:51:44.979Z,10.63
2023-04-10T02:54:11.716Z,10.93
2023-04-10T02:56:38.416Z,12.83
2023-04-10T02:59:05.094Z,15.07
2023-04-10T03:01:32.299Z,10.97
2023-04-10T03:03:59.386Z,12.40
2023-04-10T03:06:29.250Z,12.27
2023-04-10T03:08:56.420Z,14.90
2023-04-10T03:11:23.641Z,17.77
2023-04-10T03:13:50.406Z,16.37
2023-04-10T03:16:19.927Z,18.17
2023-04-10T03:18:47.094Z,15.80
2023-04-10T03:21:13.784Z,15.10
2023-04-10T03:23:40.496Z,17.80
2023-04-10T03:26:07.364Z,15.30
2023-04-10T03:28:35.668Z,23.93
2023-04-10T03:31:06.120Z,26.27
2023-04-10T03:33:32.762Z,28.83
2023-04-10T03:35:59.557Z,29.17
2023-04-10T03:38:26.236Z,28.40
2023-04-10T03:40:53.996Z,29.63
2023-04-10T03:43:20.807Z,29.23
2023-04-10T03:45:47.661Z,23.63
2023-04-10T03:48:14.318Z,28.07
2023-04-10T03:50:41.161Z,29.00
2023-04-10T03:53:08.046Z,24.70
2023-04-10T03:55:34.957Z,22.60
2023-04-10T03:58:01.647Z,22.20
2023-04-10T04:00:28.455Z,21.93
2023-04-10T04:02:55.462Z,23.00
2023-04-10T04:05:22.447Z,21.80
2023-04-10T04:07:49.178Z,22.80
2023-04-10T04:10:16.058Z,20.97
2023-04-10T04:12:42.706Z,22.30
2023-04-10T04:15:09.915Z,23.80
2023-04-10T04:17:36.648Z,26.83
2023-04-10T04:20:03.708Z,24.07
2023-04-10T04:22:30.445Z,16.77
2023-04-10T04:24:57.098Z,18.50
2023-04-10T04:27:23.791Z,17.90
2023-04-10T04:29:50.552Z,19.47
2023-04-10T04:32:17.322Z,21.93
2023-04-10T04:34:44.142Z,21.17
2023-04-10T04:37:11.002Z,19.97
2023-04-10T04:39:37.717Z,19.13
2023-04-10T04:42:04.814Z,18.37
2023-04-10T04:44:31.954Z,18.57
2023-04-10T04:46:58.597Z,20.07
2023-04-10T04:49:25.469Z,18.13
2023-04-10T04:51:52.988Z,16.37
2023-04-10T04:54:20.359Z,17.13
2023-04-10T04:56:47.102Z,17.50
2023-04-10T04:59:14.301Z,17.27
2023-04-10T05:01:41.231Z,17.80
2023-04-10T05:04:08.162Z,17.93
2023-04-10T05:06:34.985Z,22.60
2023-04-10T05:09:01.767Z,24.50
2023-04-10T05:11:28.518Z,29.87
2023-04-10T05:13:55.495Z,22.17
2023-04-10T05:16:22.578Z,16.73
2023-04-10T05:18:49.265Z,16.27
2023-04-10T05:21:16.265Z,15.90
2023-04-10T05:23:42.979Z,10.80
2023-04-10T05:26:09.621Z,16.85
2023-04-10T05:28:36.301Z,5.30
2023-04-10T05:31:03.077Z,3.97
2023-04-10T05:33:29.836Z,4.18
2023-04-10T05:35:56.799Z,4.05
2023-04-10T05:38:24.638Z,4.72
2023-04-10T05:40:51.985Z,3.40
2023-04-10T05:43:18.738Z,3.53
2023-04-10T05:45:45.496Z,7.82
2023-04-10T05:48:12.219Z,4.45
2023-04-10T05:50:39.087Z,3.03
2023-04-10T05:53:06.037Z,4.88
2023-04-10T05:55:32.799Z,4.55
2023-04-10T05:57:59.586Z,6.43
2023-04-10T06:00:26.328Z,6.22
2023-04-10T06:02:53.122Z,6.05
2023-04-10T06:05:20.128Z,4.90
2023-04-10T06:07:47.038Z,6.35
2023-04-10T06:10:13.707Z,4.03
2023-04-10T06:12:40.588Z,4.18
2023-04-10T06:15:07.990Z,3.33
2023-04-10T06:17:34.642Z,3.83
2023-04-10T06:20:04.718Z,3.72
2023-04-10T06:22:32.660Z,5.35
2023-04-10T06:24:59.531Z,4.07
2023-04-10T06:27:27.403Z,5.05
2023-04-10T06:29:54.191Z,4.60
2023-04-10T06:32:21.076Z,3.90
2023-04-10T06:34:53.597Z,7.90
2023-04-10T06:37:28.404Z,4.05
2023-04-10T06:40:06.510Z,3.63
2023-04-10T06:42:33.797Z,3.67
2023-04-10T06:45:00.879Z,5.53
2023-04-10T06:47:28.415Z,8.50
2023-04-10T06:49:55.440Z,6.13
2023-04-10T06:52:22.084Z,4.70
2023-04-10T06:54:48.854Z,4.80
2023-04-10T06:57:16.094Z,5.50
2023-04-10T06:59:43.192Z,3.53
2023-04-10T07:02:10.053Z,5.95
2023-04-10T07:04:36.956Z,5.78
2023-04-10T07:07:03.938Z,5.25
2023-04-10T07:09:31.162Z,4.32
2023-04-10T07:11:57.805Z,4.43
2023-04-10T07:14:24.625Z,4.18
2023-04-10T07:16:51.523Z,5.45
2023-04-10T07:19:19.767Z,4.60
2023-04-10T07:21:50.197Z,3.80
2023-04-10T07:24:17.972Z,4.57
2023-04-10T07:26:45.557Z,4.50
2023-04-10T07:29:13.070Z,4.55
2023-04-10T07:31:43.048Z,6.25
2023-04-10T07:34:11.390Z,7.82
2023-04-10T07:36:38.297Z,5.47
2023-04-10T07:39:04.945Z,4.70
2023-04-10T07:41:31.619Z,4.25
2023-04-10T07:43:59.295Z,5.85
2023-04-10T07:46:27.584Z,4.15
2023-04-10T07:48:55.838Z,5.95
2023-04-10T07:51:23.153Z,6.13
2023-04-10T07:53:50.134Z,4.82
2023-04-10T07:56:18.521Z,5.13
2023-04-10T07:58:46.039Z,4.68
2023-04-10T08:01:13.132Z,4.00
2023-04-10T08:03:44.276Z,6.38
2023-04-10T08:06:11.980Z,5.72
2023-04-10T08:08:39.992Z,5.15
2023-04-10T08:11:21.936Z,4.00
2023-04-10T08:13:49.113Z,5.40
2023-04-10T08:16:15.800Z,4.43
2023-04-10T08:18:43.016Z,5.50
2023-04-10T08:21:09.879Z,5.00
2023-04-10T08:23:41.399Z,11.75
2023-04-10T08:26:08.425Z,3.90
2023-04-10T08:28:36.494Z,6.70
2023-04-10T08:31:03.720Z,4.28
2023-04-10T08:33:30.686Z,18.05
2023-04-10T08:35:57.942Z,8.57
2023-04-10T08:38:27.786Z,3.75
2023-04-10T08:40:54.941Z,6.68
2023-04-10T08:43:21.921Z,12.80
2023-04-10T08:45:49.218Z,33.47
2023-04-10T08:48:18.619Z,6.65
2023-04-10T08:50:46.510Z,5.47
2023-04-10T08:53:16.073Z,8.48
2023-04-10T08:55:45.870Z,17.95
2023-04-10T08:58:14.027Z,5.93
2023-04-10T09:00:42.106Z,6.18
2023-04-10T09:03:12.258Z,6.88
2023-04-10T09:05:39.633Z,11.65
2023-04-10T09:08:11.082Z,9.65
2023-04-10T09:10:38.140Z,5.82
2023-04-10T09:13:05.063Z,7.13
2023-04-10T09:15:54.808Z,9.27
2023-04-10T09:18:21.612Z,9.38
2023-04-10T09:20:51.646Z,9.93
2023-04-10T09:23:24.821Z,7.63
2023-04-10T09:25:51.523Z,4.60
2023-04-10T09:28:18.167Z,5.65
2023-04-10T09:30:46.409Z,5.03
2023-04-10T09:33:30.271Z,6.55
2023-04-10T09:36:00.191Z,15.77
2023-04-10T09:38:27.112Z,7.00
2023-04-10T09:41:07.205Z,9.85
2023-04-10T09:43:33.970Z,9.02
2023-04-10T09:46:00.685Z,5.07
2023-04-10T09:48:27.953Z,5.60
2023-04-10T09:50:54.686Z,6.60
2023-04-10T09:53:22.022Z,4.95
2023-04-10T09:55:50.537Z,5.53
2023-04-10T09:58:19.021Z,6.07
2023-04-10T10:00:48.899Z,9.10
2023-04-10T10:03:17.606Z,7.32
2023-04-10T10:05:48.365Z,6.63
2023-04-10T10:08:16.052Z,7.07
2023-04-10T10:10:53.747Z,7.70
2023-04-10T10:13:40.975Z,6.40
2023-04-10T10:16:15.908Z,5.82
2023-04-10T10:21:20.941Z,6.07
2023-04-10T10:23:53.991Z,4.85
2023-04-10T10:26:23.843Z,6.15
2023-04-10T10:28:54.865Z,8.30
2023-04-10T10:31:23.772Z,7.78
2023-04-10T10:33:54.671Z,7.07
2023-04-10T10:36:22.763Z,4.88
2023-04-10T10:39:29.133Z,6.05
2023-04-10T10:42:20.964Z,7.55
2023-04-10T10:45:11.821Z,11.05
2023-04-10T10:47:57.077Z,5.90
2023-04-10T10:52:53.960Z,5.97
2023-04-10T10:55:36.068Z,7.45
2023-04-10T10:58:05.746Z,8.57
2023-04-10T11:00:51.420Z,7.38
2023-04-10T11:03:18.339Z,7.13
2023-04-10T11:05:52.496Z,8.73
2023-04-10T11:08:49.090Z,11.03
2023-04-10T11:11:27.605Z,7.95
2023-04-10T11:13:57.248Z,12.45
2023-04-10T11:16:44.233Z,6.43
2023-04-10T11:19:16.454Z,4.03
2023-04-10T11:22:02.546Z,5.93
2023-04-10T11:26:57.635Z,11.23
2023-04-10T11:29:27.072Z,21.83
2023-04-10T11:31:59.202Z,7.32
2023-04-10T11:34:27.685Z,10.30
2023-04-10T11:36:54.721Z,7.85
2023-04-10T11:39:22.145Z,3.75
2023-04-10T11:41:53.322Z,3.33
2023-04-10T11:44:31.745Z,9.48
2023-04-10T11:46:59.287Z,11.07
2023-04-10T11:49:28.300Z,18.75
2023-04-10T11:51:55.156Z,5.75
2023-04-10T11:54:23.812Z,7.32
2023-04-10T11:57:04.986Z,13.23
2023-04-10T11:59:33.352Z,7.28
2023-04-10T12:02:14.987Z,5.93
2023-04-10T12:04:46.790Z,5.82
2023-04-10T12:07:13.594Z,6.28
2023-04-10T12:09:40.796Z,6.68
2023-04-10T12:12:08.372Z,5.95
2023-04-10T12:14:38.547Z,7.20
2023-04-10T12:17:07.772Z,13.20
2023-04-10T12:19:35.701Z,20.00
2023-04-10T12:22:03.128Z,8.50
2023-04-10T12:24:53.576Z,13.50
2023-04-10T12:27:27.891Z,15.77
2023-04-10T12:29:58.534Z,6.28
2023-04-10T12:32:27.760Z,5.88
2023-04-10T12:35:06.257Z,6.65
2023-04-10T12:37:50.450Z,7.53
2023-04-10T12:40:18.660Z,3.60
2023-04-10T12:42:45.739Z,4.68
2023-04-10T12:45:14.238Z,6.50
2023-04-10T12:47:48.124Z,3.58
2023-04-10T12:50:16.705Z,5.03
2023-04-10T12:52:45.547Z,7.55
2023-04-10T12:55:21.255Z,7.10
2023-04-10T12:57:49.249Z,5.75
2023-04-10T13:00:19.737Z,7.43
2023-04-10T13:02:49.094Z,6.97
2023-04-10T13:05:16.028Z,7.97
2023-04-10T13:07:42.936Z,7.70
2023-04-10T13:10:11.335Z,4.60
2023-04-10T13:12:39.194Z,3.85
2023-04-10T13:15:08.281Z,9.80
2023-04-10T13:17:35.438Z,4.38
2023-04-10T13:20:02.323Z,5.03
2023-04-10T13:22:28.930Z,3.70
2023-04-10T13:24:55.704Z,4.03
2023-04-10T13:27:22.385Z,5.00
2023-04-10T13:29:49.320Z,3.70
2023-04-10T13:32:16.849Z,6.38
2023-04-10T13:34:45.363Z,7.13
2023-04-10T13:37:14.769Z,3.47
2023-04-10T13:39:43.710Z,7.82
2023-04-10T13:42:16.222Z,4.97
2023-04-10T13:44:43.249Z,4.85
2023-04-10T13:47:10.022Z,1.95
2023-04-10T13:49:36.874Z,3.85
2023-04-10T13:52:03.666Z,2.65
2023-04-10T13:54:30.405Z,3.08
2023-04-10T13:56:59.201Z,2.97
2023-04-10T13:59:26.327Z,5.00
2023-04-10T14:01:53.100Z,6.03
2023-04-10T14:04:20.002Z,2.72
2023-04-10T14:06:47.028Z,4.70
2023-04-10T14:09:14.170Z,4.20
2023-04-10T14:11:42.088Z,5.10
2023-04-10T14:14:08.870Z,8.38
2023-04-10T14:16:35.925Z,6.85
2023-04-10T14:19:02.602Z,7.63
2023-04-10T14:21:29.252Z,3.97
2023-04-10T14:23:58.059Z,9.30
2023-04-10T14:26:24.732Z,15.73
2023-04-10T14:28:52.417Z,19.40
2023-04-10T14:31:22.606Z,14.77
2023-04-10T14:33:49.505Z,13.32
2023-04-10T14:36:17.759Z,12.15
2023-04-10T14:38:45.070Z,16.75
2023-04-10T14:41:11.808Z,6.50
2023-04-10T14:43:42.146Z,7.28
2023-04-10T14:46:10.562Z,4.57
2023-04-10T14:48:37.337Z,15.40
2023-04-10T14:51:05.742Z,13.68
2023-04-10T14:53:34.846Z,5.13
2023-04-10T14:56:04.629Z,5.35
2023-04-10T14:58:31.230Z,8.02
2023-04-10T15:01:01.321Z,8.65
2023-04-10T15:03:28.312Z,4.30
2023-04-10T15:06:01.628Z,6.05
2023-04-10T15:08:30.001Z,7.32
2023-04-10T15:10:56.692Z,7.85
2023-04-10T15:13:25.960Z,8.13
2023-04-10T15:15:52.685Z,6.28
2023-04-10T15:18:19.831Z,3.20
2023-04-10T15:20:46.594Z,7.50
2023-04-10T15:23:13.252Z,6.57
2023-04-10T15:25:39.932Z,7.85
2023-04-10T15:28:08.556Z,10.57
2023-04-10T15:30:35.512Z,6.32
2023-04-10T15:33:02.437Z,6.43
2023-04-10T15:35:30.555Z,7.72
2023-04-10T15:37:57.616Z,6.90
2023-04-10T15:40:24.618Z,15.32
2023-04-10T15:42:51.450Z,5.57
2023-04-10T15:45:18.324Z,8.68
2023-04-10T15:47:47.499Z,18.65
2023-04-10T15:50:14.501Z,11.55
2023-04-10T15:52:41.186Z,10.60
2023-04-10T15:55:08.505Z,7.40
2023-04-10T15:57:35.581Z,17.98
2023-04-10T16:00:04.250Z,10.27
2023-04-10T16:02:32.375Z,9.50
2023-04-10T16:05:02.228Z,13.18
2023-04-10T16:07:28.939Z,8.75
2023-04-10T16:09:56.872Z,8.00
2023-04-10T16:12:23.894Z,14.68
2023-04-10T16:14:51.135Z,14.05
2023-04-10T16:17:17.885Z,5.75
2023-04-10T16:19:45.095Z,8.52
2023-04-10T16:22:11.713Z,17.98
2023-04-10T16:24:38.442Z,13.60
2023-04-10T16:27:08.186Z,13.85
2023-04-10T16:29:35.228Z,13.55
2023-04-10T16:32:02.240Z,12.30
2023-04-10T16:34:32.398Z,12.63
2023-04-10T16:37:00.101Z,10.40
2023-04-10T16:39:27.021Z,18.25
2023-04-10T16:41:53.715Z,4.93
2023-04-10T16:44:20.438Z,11.45
2023-04-10T16:46:47.170Z,11.23
2023-04-10T16:49:13.958Z,8.48
2023-04-10T16:51:41.070Z,8.18
2023-04-10T16:54:07.984Z,7.45
2023-04-10T16:56:34.702Z,8.18
2023-04-10T16:59:01.366Z,11.00
2023-04-10T17:01:28.514Z,21.35
2023-04-10T17:03:55.622Z,15.77
2023-04-10T17:06:22.337Z,13.13
2023-04-10T17:08:49.022Z,10.10
2023-04-10T17:11:16.945Z,9.77
2023-04-10T17:13:45.770Z,11.65
2023-04-10T17:16:12.609Z,9.68
2023-04-10T17:18:39.667Z,10.45
2023-04-10T17:21:11.293Z,9.73
2023-04-10T17:23:38.556Z,8.10
2023-04-10T17:26:06.702Z,14.95
2023-04-10T17:28:37.829Z,19.00
2023-04-10T17:31:04.868Z,22.77
2023-04-10T17:33:31.700Z,18.88
2023-04-10T17:36:02.923Z,25.30
2023-04-10T17:38:29.895Z,18.88
2023-04-10T17:40:56.637Z,30.52
2023-04-10T17:43:23.516Z,27.13
2023-04-10T17:45:50.340Z,28.65
2023-04-10T17:48:18.466Z,33.75
2023-04-10T17:50:45.347Z,17.42
2023-04-10T17:53:12.388Z,22.13
2023-04-10T17:55:39.863Z,22.33
2023-04-10T17:58:06.802Z,24.00
2023-04-10T18:00:34.225Z,21.67
2023-04-10T18:03:01.400Z,13.23
2023-04-10T18:05:29.610Z,16.55
2023-04-10T18:07:57.144Z,10.80
2023-04-10T18:10:23.879Z,13.45
2023-04-10T18:12:51.236Z,15.95
2023-04-10T18:15:18.768Z,20.73
2023-04-10T18:17:46.294Z,7.53
2023-04-10T18:20:13.438Z,26.02
2023-04-10T18:22:40.704Z,19.17
2023-04-10T18:25:08.056Z,18.73
2023-04-10T18:27:36.093Z,62.95
2023-04-10T18:30:02.844Z,31.83
2023-04-10T18:32:30.786Z,18.40
2023-04-10T18:34:57.540Z,20.80
2023-04-10T18:37:25.184Z,24.08
2023-04-10T18:39:52.045Z,17.92
2023-04-10T18:42:18.669Z,14.00
2023-04-10T18:44:46.068Z,16.45
2023-04-10T18:47:13.483Z,10.32
2023-04-10T18:49:40.457Z,5.90
2023-04-10T18:52:07.644Z,10.07
2023-04-10T18:54:35.469Z,8.82
2023-04-10T18:57:02.379Z,10.90
2023-04-10T18:59:29.937Z,14.13
2023-04-10T19:01:56.785Z,11.27
2023-04-10T19:04:25.165Z,8.05
2023-04-10T19:06:52.068Z,7.65
2023-04-10T19:09:18.809Z,9.30
2023-04-10T19:11:45.605Z,8.98
2023-04-10T19:14:12.322Z,7.72
2023-04-10T19:16:38.950Z,8.35
2023-04-10T19:19:05.745Z,6.65
2023-04-10T19:21:32.533Z,8.25
2023-04-10T19:23:59.202Z,11.20
2023-04-10T19:26:25.924Z,8.93
2023-04-10T19:28:54.076Z,9.32
2023-04-10T19:31:21.258Z,9.20
2023-04-10T19:33:48.763Z,22.13
2023-04-10T19:36:19.346Z,6.20
2023-04-10T19:38:48.974Z,14.38
2023-04-10T19:41:16.549Z,10.93
2023-04-10T19:43:44.106Z,11.52
2023-04-10T19:46:32.149Z,6.78
2023-04-10T19:48:59.628Z,12.25
2023-04-10T19:51:27.359Z,14.52
2023-04-10T19:53:56.059Z,7.15
2023-04-10T19:56:23.344Z,8.77
2023-04-10T19:58:54.268Z,10.18
2023-04-10T20:01:23.465Z,9.07
2023-04-10T20:03:51.312Z,16.83
2023-04-10T20:06:18.305Z,20.17
2023-04-10T20:08:48.302Z,9.15
2023-04-10T20:11:14.987Z,10.23
2023-04-10T20:13:41.939Z,9.70
2023-04-10T20:16:09.197Z,11.40
2023-04-10T20:18:37.681Z,11.32
2023-04-10T20:21:05.149Z,45.22
2023-04-10T20:23:32.400Z,23.15
2023-04-10T20:25:59.367Z,7.47
2023-04-10T20:28:26.305Z,14.35
2023-04-10T20:30:53.338Z,7.43
2023-04-10T20:33:20.018Z,6.47
2023-04-10T20:35:53.548Z,13.68
2023-04-10T20:38:20.277Z,19.13
2023-04-10T20:40:46.896Z,14.88
2023-04-10T20:43:14.188Z,11.90
2023-04-10T20:45:41.480Z,13.13
2023-04-10T20:48:08.933Z,10.48
2023-04-10T20:50:37.018Z,22.52
2023-04-10T20:53:03.822Z,20.42
2023-04-10T20:55:30.524Z,24.73
2023-04-10T20:57:58.768Z,9.15
2023-04-10T21:00:25.501Z,8.65
2023-04-10T21:02:52.361Z,18.40
2023-04-10T21:05:19.296Z,13.85
2023-04-10T21:07:46.077Z,16.95
2023-04-10T21:10:12.794Z,14.75
2023-04-10T21:12:39.578Z,16.40
2023-04-10T21:15:07.151Z,19.70
2023-04-10T21:17:34.557Z,20.50
2023-04-10T21:20:02.860Z,17.77
2023-04-10T21:22:29.718Z,22.08
2023-04-10T21:24:56.602Z,20.98
2023-04-10T21:27:24.092Z,17.95
2023-04-10T21:29:51.202Z,14.65
2023-04-10T21:32:17.864Z,15.93
2023-04-10T21:34:44.512Z,14.45
2023-04-10T21:37:11.168Z,14.93
2023-04-10T21:39:41.161Z,15.65
2023-04-10T21:42:07.819Z,17.67
2023-04-10T21:44:34.516Z,13.05
2023-04-10T21:47:01.515Z,28.63
2023-04-10T21:49:28.858Z,18.00
2023-04-10T21:51:55.510Z,12.93
2023-04-10T21:54:22.200Z,15.63
2023-04-10T21:56:49.082Z,13.35
2023-04-10T21:59:15.860Z,10.25
2023-04-10T22:01:43.416Z,21.25
2023-04-10T22:04:10.501Z,13.27
2023-04-10T22:06:37.284Z,13.98
2023-04-10T22:09:04.053Z,8.87
2023-04-10T22:11:30.945Z,9.60
2023-04-10T22:14:00.268Z,12.00
2023-04-10T22:18:59.831Z,13.00
2023-04-10T22:21:27.476Z,8.37
2023-04-10T22:23:54.405Z,12.87
2023-04-10T22:26:21.214Z,10.67
2023-04-10T22:28:47.882Z,9.80
2023-04-10T22:31:18.268Z,8.32
2023-04-10T22:33:44.955Z,8.17
2023-04-10T22:36:11.807Z,6.77
2023-04-10T22:38:38.521Z,8.73
2023-04-10T22:41:06.705Z,7.93
2023-04-10T22:43:36.138Z,9.40
2023-04-10T22:46:02.873Z,9.27
2023-04-10T22:48:29.573Z,7.90
2023-04-10T22:50:56.468Z,7.80
2023-04-10T22:53:23.337Z,7.53
2023-04-10T22:55:50.021Z,6.83
2023-04-10T22:58:16.673Z,6.72
2023-04-10T23:00:43.391Z,7.17
2023-04-10T23:03:10.210Z,7.30
2023-04-10T23:05:38.212Z,7.13
2023-04-10T23:08:05.002Z,6.70
2023-04-10T23:10:31.691Z,7.63
2023-04-10T23:12:58.356Z,7.17
2023-04-10T23:15:26.386Z,8.17
2023-04-10T23:17:53.096Z,8.00
2023-04-10T23:20:20.825Z,8.00
2023-04-10T23:22:47.784Z,8.20
2023-04-10T23:25:15.027Z,8.03
2023-04-10T23:27:41.824Z,8.37
2023-04-10T23:30:09.686Z,8.93
2023-04-10T23:32:36.890Z,9.07
2023-04-10T23:35:04.018Z,12.53
2023-04-10T23:37:34.012Z,9.97
2023-04-10T23:40:00.830Z,8.87
2023-04-10T23:42:29.597Z,11.23
2023-04-10T23:44:56.350Z,9.10
2023-04-10T23:47:23.086Z,9.20
2023-04-10T23:49:49.766Z,9.50
2023-04-10T23:52:16.666Z,10.68
2023-04-10T23:54:43.800Z,9.80
2023-04-10T23:57:10.806Z,9.45
2023-04-10T23:59:37.610Z,9.80
